Terminal Aerodrome Forecast
Issued by NWS

Home | Current Version | Previous Version | Text Only | Print | Product List | Glossary On
Versions: 1 2 3 4 5 6 7 8 9 10 11 12 13 14 15 16 17 18 19 20 21 22 23 24 25 26
318
FTUS46 KPDT 190530 AAA
TAFALW
TAF AMD
KALW 190530Z 1906/2006 02008G15KT P6SM VCSH SCT028 BKN035
     FM191200 23010KT P6SM SCT045 OVC060
     FM191700 30008KT P6SM SCT050 SCT070
     FM200300 13006KT P6SM SKC=

USA.gov is the U.S. government's official web portal to all federal, state and local government web resources and services.